KGNA

The Bay of Grand Marais Airport

Grand Marais, Minnesota, USA
METAR KGNA 261256Z AUTO 26007KT 08/07 A2970 RMK AO1 SLP059 T00780067
Observed Flight Rules
May-26 @ 12:56 UTC (34 minutes ago)
Wind
260° at 7 knots
Temperatures Readings
Current 8°C / 46°F
Dewpoint 7°C / 45°F
Humidity 93%
Altimeter 29.7" Hg
Pressure 1005.9 hPa
Elevation 185
METAR KGNA 261256Z AUTO 26007KT 08/07 A2970 RMK AO1 SLP059 T00780067
Observed Flight Rules
May-26 @ 12:56 UTC
(34 minutes ago)
Wind
260° at 7 knots
Temperature Dewpoint
8°C / 46°F 7°C / 45°F
Humidity Altimeter Pressure
93% 29.7" Hg 1005.9 hPa